Time;durP1;ratioP1;P1;durP2;ratioP2;P2;SDS_P1;SDS_P2;PMS_P1;PMS_P2;Temp;Humidity;BMP_temperature;BMP_pressure;BME280_temperature;BME280_humidity;BME280_pressure;Samples;Min_cycle;Max_cycle;Signal;HPM_P1;HPM_P2
2022/01/26 00:00:08;;;;;;;20.70;10.40;;;3.60;85.50;;;;;;5041551;28;20455;-51
2022/01/26 00:08:06;;;;;;;19.50;11.23;;;3.60;85.40;;;;;;5046947;28;20542;-51
2022/01/26 00:10:34;;;;;;;19.80;10.60;;;3.50;85.80;;;;;;5042737;28;20461;-51
2022/01/26 00:13:00;;;;;;;20.50;10.70;;;3.50;85.60;;;;;;5044598;28;21014;-51
2022/01/26 00:15:30;;;;;;;19.70;11.10;;;3.50;85.50;;;;;;5027974;28;20463;-51
2022/01/26 00:17:58;;;;;;;21.13;11.90;;;3.50;85.60;;;;;;5045031;28;20442;-51
2022/01/26 00:20:38;;;;;;;20.93;12.30;;;3.40;85.80;;;;;;5046234;28;20482;-51
2022/01/26 00:41:06;;;;;;;16.53;9.67;;;3.20;86.00;;;;;;5045232;28;20815;-51
2022/01/26 00:43:36;;;;;;;20.90;10.67;;;3.30;86.30;;;;;;5043476;28;20474;-51
2022/01/26 00:46:05;;;;;;;20.57;10.07;;;3.20;86.20;;;;;;5044122;28;20458;-51
2022/01/26 00:48:36;;;;;;;16.57;9.60;;;3.20;86.20;;;;;;5027950;28;20762;-51
2022/01/26 00:51:05;;;;;;;17.00;10.90;;;3.20;86.30;;;;;;5045631;28;20451;-51
2022/01/26 00:53:37;;;;;;;19.27;11.03;;;3.10;86.40;;;;;;5043470;28;20493;-51
2022/01/26 00:56:05;;;;;;;17.20;9.83;;;3.10;86.70;;;;;;5043109;28;20483;-51
2022/01/26 00:58:33;;;;;;;20.03;10.50;;;3.20;86.50;;;;;;5024059;28;20879;-51
2022/01/26 01:01:02;;;;;;;18.50;10.13;;;3.20;86.00;;;;;;5030576;28;20545;-51
2022/01/26 01:03:33;;;;;;;15.77;9.90;;;3.20;86.20;;;;;;5010664;28;20493;-51
2022/01/26 01:06:10;;;;;;;19.13;10.40;;;3.20;86.40;;;;;;5054106;28;20450;-51
2022/01/26 01:08:39;;;;;;;21.37;9.97;;;3.10;86.30;;;;;;5043112;28;20797;-51
2022/01/26 01:11:08;;;;;;;16.30;10.17;;;3.10;86.60;;;;;;5039216;28;20473;-51
2022/01/26 01:13:38;;;;;;;19.13;10.87;;;3.20;86.60;;;;;;5028786;28;20493;-51
2022/01/26 01:16:07;;;;;;;19.13;10.60;;;3.20;86.90;;;;;;5050371;28;20985;-51
2022/01/26 01:26:47;;;;;;;25.63;14.47;;;3.30;87.20;;;;;;5042745;28;20458;-51
2022/01/26 01:34:34;;;;;;;21.73;10.50;;;3.30;86.80;;;;;;5040790;28;20458;-51
2022/01/26 01:37:06;;;;;;;15.17;9.63;;;3.30;86.80;;;;;;5039439;28;20457;-51
2022/01/26 01:39:34;;;;;;;16.10;9.40;;;3.40;86.80;;;;;;5042111;28;20461;-51
2022/01/26 01:42:02;;;;;;;19.57;11.83;;;3.40;86.30;;;;;;5042254;28;20454;-51
2022/01/26 01:44:29;;;;;;;19.97;10.13;;;3.40;86.50;;;;;;5040555;28;20998;-50
2022/01/26 01:46:57;;;;;;;18.00;9.93;;;3.40;86.20;;;;;;5034703;28;21240;-51
2022/01/26 01:49:24;;;;;;;19.40;10.17;;;3.30;86.10;;;;;;5041058;28;20469;-51
2022/01/26 01:51:59;;;;;;;17.50;10.40;;;3.30;86.70;;;;;;5044579;28;20450;-51
2022/01/26 01:54:26;;;;;;;20.97;10.43;;;3.30;86.40;;;;;;5030188;28;20507;-51
2022/01/26 01:56:57;;;;;;;15.73;9.43;;;3.30;86.50;;;;;;5056524;28;20497;-51
2022/01/26 01:59:32;;;;;;;17.80;9.83;;;3.30;86.70;;;;;;5039533;28;20557;-51
2022/01/26 02:02:01;;;;;;;17.50;9.60;;;3.30;86.70;;;;;;5028214;28;20458;-51
2022/01/26 02:04:28;;;;;;;15.70;9.97;;;3.30;86.70;;;;;;5025106;28;20456;-50
2022/01/26 02:06:55;;;;;;;22.10;10.33;;;3.30;87.10;;;;;;5041819;28;20512;-51
2022/01/26 02:09:22;;;;;;;20.10;9.37;;;3.30;86.80;;;;;;5039623;28;20836;-51
2022/01/26 02:11:51;;;;;;;23.10;10.30;;;3.30;86.80;;;;;;5041590;28;20467;-51
2022/01/26 02:14:25;;;;;;;13.33;8.03;;;3.30;86.80;;;;;;5019321;28;20504;-51
2022/01/26 02:17:04;;;;;;;14.97;8.80;;;3.30;86.60;;;;;;5041104;28;20913;-51
2022/01/26 02:50:11;;;;;;;14.33;7.90;;;3.10;86.30;;;;;;5026734;28;20465;-51
2022/01/26 02:58:43;;;;;;;15.57;8.60;;;3.00;87.70;;;;;;5038764;28;20463;-51
2022/01/26 03:00:34;;;;;;;14.40;8.37;;;3.00;87.80;;;;;;5026392;28;20463;-51
2022/01/26 03:05:50;;;;;;;18.17;9.20;;;3.00;87.40;;;;;;5039534;28;20980;-51
2022/01/26 03:08:26;;;;;;;15.60;7.53;;;3.00;87.50;;;;;;5042337;28;21092;-47
2022/01/26 03:10:55;;;;;;;18.17;8.70;;;2.90;88.00;;;;;;5039705;28;20477;-47
2022/01/26 03:13:27;;;;;;;18.57;8.00;;;2.90;88.10;;;;;;5041078;28;20863;-47
2022/01/26 03:16:00;;;;;;;16.00;8.30;;;2.90;87.70;;;;;;5036247;28;20458;-47
2022/01/26 03:20:56;;;;;;;12.97;8.70;;;3.00;87.70;;;;;;5041951;28;20446;-47
2022/01/26 03:34:11;;;;;;;;;;;;;;;;;;;;;
2022/01/26 03:36:53;;;;;;;16.27;7.50;;;2.90;88.40;;;;;;5045792;28;20458;-47
2022/01/26 03:39:22;;;;;;;13.50;8.40;;;3.00;87.90;;;;;;5058704;28;20743;-47
2022/01/26 03:42:04;;;;;;;20.07;8.07;;;2.90;87.50;;;;;;5044667;28;20462;-47
2022/01/26 03:44:32;;;;;;;14.10;7.40;;;2.90;87.20;;;;;;5044530;28;20458;-47
2022/01/26 03:47:00;;;;;;;11.80;7.30;;;2.90;87.80;;;;;;5045003;28;20800;-47
2022/01/26 03:49:26;;;;;;;15.43;7.20;;;2.80;87.50;;;;;;5010730;28;20557;-48
2022/01/26 03:51:54;;;;;;;14.10;8.17;;;2.80;88.00;;;;;;5043964;28;20458;-47
2022/01/26 03:54:21;;;;;;;11.60;8.60;;;2.80;88.20;;;;;;5045118;28;20487;-47
2022/01/26 03:56:51;;;;;;;16.90;8.40;;;2.80;88.10;;;;;;5032265;28;20459;-47
2022/01/26 03:59:18;;;;;;;12.40;6.90;;;2.80;88.30;;;;;;5034076;28;20455;-46
2022/01/26 04:01:45;;;;;;;18.07;9.83;;;2.80;88.40;;;;;;5043635;28;20461;-47
2022/01/26 04:04:11;;;;;;;15.67;10.63;;;2.80;88.00;;;;;;5045343;28;20476;-46
2022/01/26 04:06:39;;;;;;;14.90;8.50;;;2.80;88.20;;;;;;5041371;28;20537;-48
2022/01/26 04:09:08;;;;;;;15.50;9.13;;;2.80;88.00;;;;;;5028824;28;20478;-47
2022/01/26 04:11:40;;;;;;;14.17;8.50;;;2.80;87.80;;;;;;5044838;28;20464;-47
2022/01/26 04:14:11;;;;;;;14.57;8.93;;;2.80;88.30;;;;;;5044254;28;20497;-47
2022/01/26 04:16:40;;;;;;;16.40;9.43;;;2.80;88.50;;;;;;5045121;28;20873;-47
2022/01/26 04:19:07;;;;;;;17.40;7.73;;;2.90;88.00;;;;;;5059312;28;21000;-47
2022/01/26 04:24:27;;;;;;;12.83;7.70;;;2.90;87.70;;;;;;5039835;28;21087;-47
2022/01/26 04:27:02;;;;;;;15.53;7.83;;;2.90;87.60;;;;;;5040286;28;21003;-46
2022/01/26 04:29:32;;;;;;;17.53;8.30;;;2.90;87.70;;;;;;5026419;28;20443;-46
2022/01/26 04:32:01;;;;;;;15.77;9.20;;;2.80;88.10;;;;;;5030056;28;20962;-47
2022/01/26 04:34:29;;;;;;;18.67;11.23;;;2.80;88.30;;;;;;5057249;28;20478;-47
2022/01/26 04:37:03;;;;;;;17.10;9.60;;;2.80;88.40;;;;;;5048047;28;20541;-47
2022/01/26 04:39:37;;;;;;;13.83;9.07;;;2.90;88.40;;;;;;5028565;28;20454;-47
2022/01/26 04:42:13;;;;;;;18.07;10.43;;;2.90;88.20;;;;;;5045272;28;20454;-46
2022/01/26 04:45:01;;;;;;;17.27;9.67;;;2.90;88.30;;;;;;5042842;28;20874;-46
2022/01/26 04:47:27;;;;;;;16.13;9.73;;;2.90;88.30;;;;;;5042150;28;20462;-46
2022/01/26 04:49:55;;;;;;;18.17;10.43;;;2.90;88.10;;;;;;5041189;28;20500;-46
2022/01/26 04:52:21;;;;;;;15.90;8.93;;;2.90;88.10;;;;;;5041157;28;20851;-48
2022/01/26 04:54:49;;;;;;;20.17;9.37;;;2.90;88.30;;;;;;5042820;28;20489;-47
2022/01/26 04:57:16;;;;;;;18.30;9.00;;;2.90;88.40;;;;;;5024135;28;20475;-47
2022/01/26 04:59:43;;;;;;;17.37;9.03;;;3.00;87.70;;;;;;5041220;28;20455;-47
2022/01/26 05:02:10;;;;;;;19.30;8.47;;;3.00;87.20;;;;;;5041458;28;20968;-46
2022/01/26 05:04:38;;;;;;;16.60;8.83;;;2.90;87.70;;;;;;5040192;28;20968;-47
2022/01/26 05:07:04;;;;;;;17.10;8.37;;;2.90;87.90;;;;;;5041443;28;20461;-47
2022/01/26 05:09:31;;;;;;;16.37;8.40;;;2.90;88.30;;;;;;5044300;28;20472;-47
2022/01/26 05:11:58;;;;;;;18.77;10.20;;;2.90;88.40;;;;;;5040087;28;20455;-48
2022/01/26 05:14:25;;;;;;;20.07;11.40;;;2.90;88.50;;;;;;5043586;28;20567;-47
2022/01/26 05:16:52;;;;;;;19.60;10.30;;;2.80;88.80;;;;;;5040665;28;20471;-48
2022/01/26 05:19:19;;;;;;;23.13;10.60;;;2.90;89.00;;;;;;5041906;28;20447;-47
2022/01/26 05:21:45;;;;;;;22.10;11.97;;;2.90;88.90;;;;;;5046456;28;20994;-47
2022/01/26 05:24:12;;;;;;;15.17;8.90;;;3.00;88.60;;;;;;5041598;28;20479;-48
2022/01/26 05:26:40;;;;;;;19.37;10.17;;;3.00;88.20;;;;;;5039735;28;20462;-47
2022/01/26 05:29:11;;;;;;;17.93;10.40;;;3.10;88.10;;;;;;5043418;28;20891;-47
2022/01/26 05:31:38;;;;;;;17.80;10.17;;;3.10;88.10;;;;;;5040286;28;20948;-47
2022/01/26 05:34:06;;;;;;;18.30;9.90;;;3.00;88.20;;;;;;5029403;28;20478;-47
2022/01/26 05:36:33;;;;;;;20.50;9.67;;;3.10;88.20;;;;;;5039709;28;20521;-46
2022/01/26 05:39:01;;;;;;;17.27;11.50;;;3.20;87.40;;;;;;5041867;28;20966;-47
2022/01/26 05:41:28;;;;;;;17.83;10.27;;;3.20;86.70;;;;;;5039847;28;20454;-46
2022/01/26 05:43:55;;;;;;;15.93;9.37;;;3.20;86.80;;;;;;5038930;28;20458;-47
2022/01/26 05:46:30;;;;;;;14.87;9.33;;;3.10;86.80;;;;;;5039864;28;20562;-46
2022/01/26 05:48:57;;;;;;;15.00;9.63;;;3.10;86.30;;;;;;5040866;28;20533;-47
2022/01/26 05:51:24;;;;;;;14.37;8.77;;;3.10;86.70;;;;;;5040978;28;20439;-47
2022/01/26 05:53:50;;;;;;;13.10;8.70;;;3.10;86.30;;;;;;5038232;28;20486;-47
2022/01/26 05:56:17;;;;;;;12.63;7.93;;;3.10;86.30;;;;;;5040227;28;20462;-46
2022/01/26 05:58:44;;;;;;;14.60;9.37;;;3.00;86.70;;;;;;5039372;28;20939;-47
2022/01/26 06:01:14;;;;;;;21.17;9.50;;;3.00;86.80;;;;;;5039861;28;20470;-47
2022/01/26 06:03:41;;;;;;;14.63;8.37;;;3.00;86.70;;;;;;5030506;28;20474;-47
2022/01/26 06:06:09;;;;;;;18.77;8.70;;;3.00;87.10;;;;;;5038689;28;20836;-47
2022/01/26 06:08:35;;;;;;;11.53;7.47;;;3.00;87.10;;;;;;5025134;28;20461;-47
2022/01/26 06:11:04;;;;;;;16.17;9.43;;;3.00;86.90;;;;;;5037737;28;20459;-46
2022/01/26 06:13:30;;;;;;;16.53;8.50;;;3.00;86.50;;;;;;5039549;28;20501;-47
2022/01/26 06:15:58;;;;;;;15.13;10.80;;;3.00;86.70;;;;;;5038107;28;20462;-47
2022/01/26 06:18:25;;;;;;;12.43;7.87;;;3.00;86.70;;;;;;5041125;28;20545;-47
2022/01/26 06:20:51;;;;;;;13.20;10.00;;;3.00;86.90;;;;;;5041600;28;20446;-46
2022/01/26 06:23:19;;;;;;;12.30;7.43;;;3.10;86.80;;;;;;5036559;28;20935;-46
2022/01/26 06:25:46;;;;;;;12.00;8.60;;;3.10;86.80;;;;;;5037653;28;20458;-46
2022/01/26 06:28:15;;;;;;;12.50;8.23;;;3.10;86.40;;;;;;5027402;28;20483;-46
2022/01/26 06:30:45;;;;;;;14.07;7.70;;;3.10;86.50;;;;;;5040698;28;20463;-47
2022/01/26 06:33:13;;;;;;;13.10;7.60;;;3.20;86.20;;;;;;5046446;28;20448;-46
2022/01/26 06:35:40;;;;;;;11.17;6.93;;;3.20;85.90;;;;;;5023354;28;20466;-47
2022/01/26 06:38:08;;;;;;;16.10;8.37;;;3.20;86.10;;;;;;5025342;28;20461;-47
2022/01/26 06:40:35;;;;;;;10.70;7.50;;;3.20;85.90;;;;;;5028233;28;20957;-47
2022/01/26 06:43:07;;;;;;;12.17;7.63;;;3.30;85.50;;;;;;5024367;28;20494;-50
2022/01/26 06:45:38;;;;;;;11.03;6.70;;;3.20;85.70;;;;;;5026965;28;20815;-50
2022/01/26 06:50:44;;;;;;;11.63;7.67;;;3.20;85.60;;;;;;5041302;28;20447;-50
2022/01/26 06:53:13;;;;;;;11.50;8.00;;;3.20;85.60;;;;;;5041169;28;20793;-51
2022/01/26 06:55:40;;;;;;;11.03;6.80;;;3.20;85.30;;;;;;5043117;28;20835;-51
2022/01/26 06:58:07;;;;;;;10.53;6.00;;;3.30;85.40;;;;;;5042165;28;20470;-51
2022/01/26 07:00:34;;;;;;;8.30;6.67;;;3.20;85.30;;;;;;5048320;28;20828;-51
2022/01/26 07:03:02;;;;;;;10.43;6.40;;;3.20;85.20;;;;;;5039357;28;20454;-51
2022/01/26 07:05:30;;;;;;;7.30;5.60;;;3.20;85.20;;;;;;5039744;28;20754;-51
2022/01/26 07:07:57;;;;;;;8.90;6.27;;;3.20;85.30;;;;;;5039760;28;20486;-51
2022/01/26 07:10:23;;;;;;;9.30;7.40;;;3.20;85.50;;;;;;5041660;28;20466;-51
2022/01/26 07:12:52;;;;;;;12.13;7.17;;;3.20;85.50;;;;;;5039376;28;20450;-51
2022/01/26 07:23:37;;;;;;;9.20;5.13;;;3.30;84.80;;;;;;5039885;28;20485;-47
2022/01/26 07:26:04;;;;;;;6.80;5.73;;;3.30;84.40;;;;;;5027530;28;20480;-46
2022/01/26 07:28:36;;;;;;;11.20;4.90;;;3.30;84.40;;;;;;5025077;28;20451;-47
2022/01/26 07:31:08;;;;;;;8.47;5.60;;;3.30;84.30;;;;;;5040209;28;20994;-46
2022/01/26 07:33:36;;;;;;;6.90;5.80;;;3.30;84.10;;;;;;5031055;28;20469;-47
2022/01/26 07:36:07;;;;;;;8.93;5.93;;;3.30;84.50;;;;;;5021614;28;20826;-47
2022/01/26 07:38:34;;;;;;;11.43;6.30;;;3.30;84.90;;;;;;5037547;28;20487;-47
2022/01/26 07:41:01;;;;;;;7.50;5.53;;;3.30;85.00;;;;;;5041217;28;20470;-47
2022/01/26 07:43:28;;;;;;;6.87;5.40;;;3.30;84.80;;;;;;5044238;28;20462;-48
2022/01/26 07:45:55;;;;;;;8.43;5.40;;;3.30;84.90;;;;;;5041132;28;20506;-48
2022/01/26 07:48:23;;;;;;;10.00;6.50;;;3.40;85.00;;;;;;5038470;28;20455;-47
2022/01/26 07:50:56;;;;;;;9.50;6.50;;;3.30;85.00;;;;;;5037919;28;20458;-47
2022/01/26 07:53:23;;;;;;;9.40;7.10;;;3.40;84.60;;;;;;5036251;28;20574;-47
2022/01/26 07:55:50;;;;;;;9.37;7.00;;;3.40;84.70;;;;;;5039140;28;20490;-47
2022/01/26 07:58:18;;;;;;;9.07;6.63;;;3.40;84.40;;;;;;5047893;28;20459;-49
2022/01/26 08:00:45;;;;;;;9.93;7.30;;;3.30;84.10;;;;;;5037739;28;20823;-48
2022/01/26 08:03:13;;;;;;;11.37;7.60;;;3.30;84.40;;;;;;5055649;28;20462;-48
2022/01/26 08:05:40;;;;;;;13.30;7.40;;;3.20;84.50;;;;;;5052860;28;20502;-49
2022/01/26 08:08:08;;;;;;;12.20;6.63;;;3.20;84.90;;;;;;5041568;28;20464;-48
2022/01/26 08:10:35;;;;;;;16.07;9.00;;;3.10;84.80;;;;;;5058739;28;20467;-49
2022/01/26 08:13:08;;;;;;;11.20;7.80;;;3.10;85.00;;;;;;5050996;28;20471;-49
2022/01/26 08:15:34;;;;;;;11.80;7.57;;;3.10;85.30;;;;;;5054390;28;20483;-49
2022/01/26 08:18:05;;;;;;;10.50;6.83;;;3.10;85.20;;;;;;5050574;28;20464;-49
2022/01/26 08:20:39;;;;;;;10.33;6.83;;;3.10;85.30;;;;;;5056653;28;20448;-50
2022/01/26 08:23:06;;;;;;;11.37;6.80;;;3.10;85.30;;;;;;5054584;28;20478;-50
2022/01/26 08:25:33;;;;;;;10.27;7.10;;;3.10;85.00;;;;;;5073668;28;20489;-50
2022/01/26 08:28:09;;;;;;;13.53;8.00;;;3.10;85.20;;;;;;5044817;28;20530;-50
2022/01/26 08:30:38;;;;;;;11.00;7.60;;;3.10;85.10;;;;;;5054850;28;20465;-49
2022/01/26 08:33:06;;;;;;;12.67;8.07;;;3.10;85.10;;;;;;5041913;28;20848;-50
2022/01/26 08:35:34;;;;;;;10.80;7.23;;;3.10;84.80;;;;;;5058731;28;20485;-50
2022/01/26 08:38:02;;;;;;;12.33;7.30;;;3.10;85.00;;;;;;5057815;28;20453;-51
2022/01/26 08:40:30;;;;;;;11.90;7.33;;;3.10;85.20;;;;;;5060370;28;20462;-50
2022/01/26 08:42:57;;;;;;;9.57;7.30;;;3.10;85.50;;;;;;5062053;28;21612;-50
2022/01/26 08:45:24;;;;;;;12.43;8.33;;;3.20;85.70;;;;;;5069130;28;20538;-50
2022/01/26 08:47:51;;;;;;;11.07;6.63;;;3.20;85.40;;;;;;5062639;28;20480;-49
2022/01/26 08:50:19;;;;;;;10.87;7.93;;;3.30;84.80;;;;;;5055396;28;20495;-49
2022/01/26 08:52:47;;;;;;;10.30;8.40;;;3.30;84.10;;;;;;5056977;28;20459;-49
2022/01/26 08:55:15;;;;;;;9.67;7.77;;;3.30;84.40;;;;;;5053557;28;20482;-49
2022/01/26 08:57:42;;;;;;;10.90;7.70;;;3.20;84.10;;;;;;5059997;28;20457;-49
2022/01/26 09:00:11;;;;;;;13.17;6.67;;;3.20;84.50;;;;;;5073218;28;20586;-48
2022/01/26 09:02:38;;;;;;;11.67;7.40;;;3.20;84.10;;;;;;5059840;28;20526;-49
2022/01/26 09:05:08;;;;;;;11.40;6.80;;;3.20;84.00;;;;;;5058900;28;20948;-49
2022/01/26 09:07:35;;;;;;;11.77;6.20;;;3.20;83.80;;;;;;5055268;28;20478;-49
2022/01/26 09:10:04;;;;;;;11.10;7.27;;;3.20;84.30;;;;;;5048074;28;20506;-51
2022/01/26 09:12:36;;;;;;;9.20;7.03;;;3.10;84.20;;;;;;5019722;28;20473;-46
2022/01/26 09:15:05;;;;;;;9.10;6.23;;;3.10;84.30;;;;;;5038949;28;20530;-46
2022/01/26 09:17:34;;;;;;;7.90;6.43;;;3.10;84.30;;;;;;5040453;28;20818;-46
2022/01/26 09:20:03;;;;;;;11.93;6.60;;;3.10;84.50;;;;;;5042286;28;20542;-46
2022/01/26 09:22:30;;;;;;;9.43;5.80;;;3.10;84.20;;;;;;5041840;28;20474;-48
2022/01/26 09:24:57;;;;;;;10.70;7.57;;;3.10;84.30;;;;;;5037430;28;20458;-46
2022/01/26 09:27:25;;;;;;;10.73;6.73;;;3.10;84.30;;;;;;5040351;28;20852;-47
2022/01/26 09:29:53;;;;;;;12.00;6.13;;;3.00;84.10;;;;;;5037225;28;20549;-48
2022/01/26 09:32:20;;;;;;;7.47;5.93;;;3.00;84.40;;;;;;5038640;28;20463;-47
2022/01/26 09:35:14;;;;;;;7.97;6.00;;;3.00;84.40;;;;;;5037232;28;20485;-47
2022/01/26 09:37:41;;;;;;;9.13;6.03;;;3.00;84.30;;;;;;5042993;28;20462;-47
2022/01/26 09:40:09;;;;;;;9.10;6.33;;;3.00;84.40;;;;;;5039195;28;20457;-47
2022/01/26 09:42:37;;;;;;;9.20;6.33;;;3.00;84.70;;;;;;5039729;28;20837;-47
2022/01/26 09:45:08;;;;;;;9.03;6.07;;;3.00;84.60;;;;;;5054886;28;20466;-47
2022/01/26 09:47:34;;;;;;;8.37;6.20;;;3.00;84.80;;;;;;5040363;28;20495;-47
2022/01/26 09:50:21;;;;;;;9.03;6.30;;;3.10;84.40;;;;;;5040608;28;20456;-47
2022/01/26 09:52:48;;;;;;;13.43;8.83;;;3.10;84.60;;;;;;5030897;28;20462;-48
2022/01/26 09:55:16;;;;;;;11.20;6.97;;;3.10;84.60;;;;;;5042887;28;20486;-48
2022/01/26 09:58:11;;;;;;;8.60;6.27;;;3.10;84.10;;;;;;5042604;28;20446;-47
2022/01/26 10:00:37;;;;;;;8.40;6.73;;;3.10;84.00;;;;;;5043185;28;20465;-48
2022/01/26 10:03:06;;;;;;;10.83;6.60;;;3.10;84.00;;;;;;5040793;28;20850;-46
2022/01/26 10:05:38;;;;;;;9.60;5.80;;;3.10;84.20;;;;;;5037826;28;20711;-47
2022/01/26 10:19:04;;;;;;;7.37;5.70;;;3.20;84.10;;;;;;5039975;28;20444;-46
2022/01/26 10:21:30;;;;;;;7.07;5.03;;;3.20;83.90;;;;;;5042522;28;20517;-46
2022/01/26 10:24:09;;;;;;;9.20;6.10;;;3.20;83.90;;;;;;5027854;28;20474;-46
2022/01/26 10:26:35;;;;;;;6.60;5.10;;;3.20;84.00;;;;;;5041686;28;20476;-47
2022/01/26 10:29:05;;;;;;;11.00;6.43;;;3.20;83.20;;;;;;5054435;28;20466;-47
2022/01/26 10:31:32;;;;;;;14.70;6.10;;;3.20;83.40;;;;;;5033572;28;20466;-47
2022/01/26 10:34:08;;;;;;;12.70;7.10;;;3.20;83.00;;;;;;5043821;28;20967;-47
2022/01/26 10:36:43;;;;;;;9.93;5.80;;;3.20;83.30;;;;;;5043274;28;21018;-47
2022/01/26 10:39:14;;;;;;;9.80;6.73;;;3.20;83.30;;;;;;5039202;28;20448;-47
2022/01/26 10:41:44;;;;;;;9.60;6.97;;;3.20;83.50;;;;;;5020110;28;20450;-47
2022/01/26 10:44:11;;;;;;;9.50;5.60;;;3.20;83.90;;;;;;5041413;28;20443;-47
2022/01/26 10:46:42;;;;;;;8.97;5.63;;;3.20;83.70;;;;;;5039946;28;20859;-48
2022/01/26 10:54:23;;;;;;;7.60;6.50;;;3.30;83.40;;;;;;5039882;28;20918;-47
2022/01/26 10:56:51;;;;;;;10.67;6.40;;;3.30;83.40;;;;;;5037789;28;20458;-47
2022/01/26 10:59:19;;;;;;;8.60;5.90;;;3.30;83.60;;;;;;5043526;28;20457;-47
2022/01/26 11:01:46;;;;;;;10.10;5.60;;;3.30;83.90;;;;;;5037277;28;20520;-47
2022/01/26 11:04:13;;;;;;;8.53;5.70;;;3.30;83.80;;;;;;5024156;28;20543;-47
2022/01/26 11:07:11;;;;;;;8.33;6.70;;;3.40;83.40;;;;;;5035872;28;20450;-47
2022/01/26 11:09:40;;;;;;;11.47;6.90;;;3.40;82.30;;;;;;5058973;28;20904;-47
2022/01/26 11:12:12;;;;;;;8.40;6.80;;;3.30;82.30;;;;;;5039630;28;20444;-47
2022/01/26 11:14:42;;;;;;;9.90;6.60;;;3.30;82.60;;;;;;5041073;28;20458;-46
2022/01/26 11:17:13;;;;;;;13.03;7.10;;;3.20;83.10;;;;;;5038427;28;20457;-47
2022/01/26 11:19:45;;;;;;;9.03;6.87;;;3.30;83.20;;;;;;5028387;28;20830;-47
2022/01/26 11:22:14;;;;;;;12.63;6.70;;;3.30;83.50;;;;;;5038320;28;20956;-46
2022/01/26 11:24:51;;;;;;;10.40;6.97;;;3.40;83.20;;;;;;5040320;28;20917;-46
2022/01/26 11:27:20;;;;;;;9.20;6.60;;;3.40;82.90;;;;;;5035732;28;20471;-50
2022/01/26 11:29:52;;;;;;;10.00;7.20;;;3.40;82.80;;;;;;5040964;28;20467;-50
2022/01/26 11:32:33;;;;;;;10.13;6.73;;;3.40;83.20;;;;;;5041776;28;20848;-50
2022/01/26 11:35:04;;;;;;;12.53;7.20;;;3.40;82.90;;;;;;5023121;28;20490;-50
2022/01/26 11:37:48;;;;;;;13.00;6.93;;;3.40;83.20;;;;;;5043880;28;20462;-50
2022/01/26 11:46:07;;;;;;;11.07;8.00;;;3.50;81.90;;;;;;5043296;28;20448;-51
2022/01/26 11:48:35;;;;;;;10.57;6.60;;;3.60;81.90;;;;;;5042480;28;20455;-50
2022/01/26 11:51:03;;;;;;;12.87;7.27;;;3.60;81.30;;;;;;5041548;28;20927;-51
2022/01/26 11:53:30;;;;;;;11.93;7.13;;;3.60;81.60;;;;;;5040651;28;20841;-51
2022/01/26 11:56:20;;;;;;;11.20;7.10;;;3.60;81.80;;;;;;5037628;28;20478;-51
2022/01/26 11:58:50;;;;;;;10.13;6.80;;;3.60;81.40;;;;;;5046984;28;20460;-50
2022/01/26 12:04:01;;;;;;;11.00;6.93;;;3.70;81.70;;;;;;5057396;28;20467;-50
2022/01/26 12:06:40;;;;;;;9.70;6.63;;;3.70;81.20;;;;;;5059360;28;20464;-50
2022/01/26 12:09:08;;;;;;;9.80;6.03;;;3.70;80.80;;;;;;5061678;28;20461;-49
2022/01/26 12:11:36;;;;;;;8.77;6.83;;;3.70;81.00;;;;;;5041152;28;20486;-50
2022/01/26 12:14:05;;;;;;;11.10;7.10;;;3.70;80.70;;;;;;5044908;28;20547;-50
2022/01/26 12:16:43;;;;;;;12.30;7.50;;;3.70;80.70;;;;;;5080461;28;20480;-50
2022/01/26 12:43:48;;;;;;;17.47;10.93;;;3.80;80.70;;;;;;5061397;28;20462;-50
2022/01/26 12:46:23;;;;;;;17.53;8.60;;;3.80;80.20;;;;;;5078329;28;20550;-49
2022/01/26 12:49:06;;;;;;;18.27;11.13;;;3.80;79.60;;;;;;5039794;28;20446;-50
2022/01/26 12:51:51;;;;;;;17.10;10.10;;;3.80;79.80;;;;;;5044076;28;20465;-50
2022/01/26 12:54:19;;;;;;;17.90;10.27;;;3.80;79.60;;;;;;5069754;28;20450;-50
2022/01/26 12:56:45;;;;;;;17.40;10.17;;;3.70;79.90;;;;;;5077542;28;20486;-50
2022/01/26 12:59:16;;;;;;;16.03;8.80;;;3.70;80.10;;;;;;5064163;28;20482;-50
2022/01/26 13:01:45;;;;;;;15.93;9.80;;;3.70;80.10;;;;;;5062373;28;20462;-51
2022/01/26 13:04:16;;;;;;;18.47;11.10;;;3.80;80.10;;;;;;5058851;28;20462;-51
2022/01/26 13:06:51;;;;;;;16.70;10.60;;;3.80;79.70;;;;;;5060963;28;20526;-51
2022/01/26 13:09:29;;;;;;;19.00;11.77;;;3.80;79.70;;;;;;5056403;28;20459;-50
2022/01/26 13:11:58;;;;;;;18.33;10.07;;;3.80;80.20;;;;;;5059888;28;20481;-50
2022/01/26 13:22:57;;;;;;;21.33;11.10;;;3.80;79.50;;;;;;5056284;28;20541;-50
2022/01/26 13:25:51;;;;;;;18.37;10.07;;;3.80;79.80;;;;;;5061790;28;20450;-51
2022/01/26 13:37:16;;;;;;;20.70;10.20;;;3.80;80.50;;;;;;5055690;28;20927;-50
2022/01/26 13:55:16;;;;;;;17.03;11.50;;;3.90;80.00;;;;;;5055935;28;20466;-50
2022/01/26 14:00:12;;;;;;;18.80;11.63;;;3.80;80.50;;;;;;5059648;28;20530;-50
2022/01/26 14:02:40;;;;;;;18.57;11.10;;;3.80;80.70;;;;;;5030049;28;20532;-50
2022/01/26 14:05:08;;;;;;;22.37;12.00;;;3.90;80.40;;;;;;5044134;28;20461;-50
2022/01/26 14:07:35;;;;;;;19.07;10.80;;;3.90;79.80;;;;;;5060674;28;20465;-50
2022/01/26 14:10:05;;;;;;;20.90;12.20;;;3.90;79.80;;;;;;5059798;28;20490;-50
2022/01/26 14:12:38;;;;;;;21.87;12.10;;;3.90;79.70;;;;;;5059409;28;20459;-50
2022/01/26 14:15:08;;;;;;;21.10;12.20;;;3.90;79.80;;;;;;5045438;28;20506;-50
2022/01/26 14:25:46;;;;;;;21.20;11.30;;;4.00;79.10;;;;;;5062521;28;20463;-50
2022/01/26 14:28:23;;;;;;;20.03;11.30;;;3.90;79.20;;;;;;5062572;28;20524;-50
2022/01/26 14:31:08;;;;;;;19.17;11.00;;;3.90;79.20;;;;;;5055389;28;20489;-50
2022/01/26 14:33:57;;;;;;;18.37;11.20;;;3.90;79.00;;;;;;5062617;28;20466;-50
2022/01/26 15:10:41;;;;;;;19.07;8.67;;;4.00;78.10;;;;;;5057887;28;20462;-50
2022/01/26 15:40:19;;;;;;;21.90;11.70;;;4.00;79.40;;;;;;5065920;28;20436;-49
2022/01/26 15:51:02;;;;;;;22.47;12.50;;;4.10;78.50;;;;;;5067248;28;20454;-50
2022/01/26 16:04:41;;;;;;;16.10;11.20;;;4.00;79.10;;;;;;5067648;28;20462;-49
2022/01/26 16:07:18;;;;;;;21.43;13.33;;;4.00;78.90;;;;;;5079554;28;20589;-49
2022/01/26 18:40:05;;;;;;;21.37;13.47;;;3.40;80.60;;;;;;5059515;28;20549;-50
2022/01/26 18:50:45;;;;;;;19.80;12.10;;;3.40;80.50;;;;;;5043437;28;20458;-48
2022/01/26 18:53:13;;;;;;;21.90;13.00;;;3.40;80.10;;;;;;5039214;28;20478;-48
2022/01/26 18:55:42;;;;;;;19.90;11.90;;;3.40;80.30;;;;;;5044579;28;20459;-48
2022/01/26 18:58:09;;;;;;;20.20;12.23;;;3.40;80.70;;;;;;5041326;28;20535;-48
2022/01/26 19:00:37;;;;;;;24.17;13.23;;;3.40;80.50;;;;;;5029789;28;20449;-51
2022/01/26 19:03:04;;;;;;;20.60;13.20;;;3.50;80.30;;;;;;5040762;28;20477;-51
2022/01/26 19:05:31;;;;;;;19.07;11.60;;;3.40;80.50;;;;;;5039158;28;20451;-51
2022/01/26 19:07:58;;;;;;;21.30;12.10;;;3.40;80.50;;;;;;5026108;28;20828;-48
2022/01/26 19:10:25;;;;;;;18.93;11.50;;;3.50;80.50;;;;;;5038462;28;20455;-48
2022/01/26 19:12:52;;;;;;;23.60;13.30;;;3.50;80.70;;;;;;5027211;28;20472;-48
2022/01/26 19:15:23;;;;;;;20.43;13.17;;;3.50;80.60;;;;;;5041717;28;20470;-48
2022/01/26 19:25:24;;;;;;;15.60;10.60;;;3.60;80.00;;;;;;5037456;28;20544;-48
2022/01/26 19:28:14;;;;;;;18.83;11.20;;;3.60;79.60;;;;;;5040753;28;20493;-48
2022/01/26 19:52:41;;;;;;;17.30;10.67;;;3.40;78.20;;;;;;5038989;28;20517;-48
2022/01/26 19:55:09;;;;;;;14.37;9.83;;;3.40;78.10;;;;;;5041651;28;20451;-48
2022/01/26 19:57:36;;;;;;;18.27;11.07;;;3.30;78.30;;;;;;5045247;28;21018;-48
2022/01/26 20:00:04;;;;;;;23.70;12.13;;;3.30;78.60;;;;;;5041993;28;20462;-48
2022/01/26 20:02:30;;;;;;;21.70;11.13;;;3.30;78.20;;;;;;5041076;28;20462;-48
2022/01/26 20:04:58;;;;;;;15.80;10.43;;;3.30;77.90;;;;;;5041211;28;21116;-48
2022/01/26 20:07:28;;;;;;;13.73;9.50;;;3.30;78.00;;;;;;5043307;28;20533;-48
2022/01/26 20:09:59;;;;;;;24.30;11.40;;;3.30;78.20;;;;;;5041019;28;20458;-48
2022/01/26 20:12:45;;;;;;;21.60;10.83;;;3.30;78.50;;;;;;5036249;28;20469;-48
2022/01/26 20:15:13;;;;;;;18.10;10.03;;;3.30;78.00;;;;;;5039398;28;20953;-48
2022/01/26 20:17:43;;;;;;;13.60;9.40;;;3.20;78.10;;;;;;5034656;28;20478;-48
2022/01/26 20:20:20;;;;;;;16.30;9.50;;;3.20;78.10;;;;;;5041891;28;20541;-48
2022/01/26 20:22:47;;;;;;;17.40;10.30;;;3.20;78.10;;;;;;5046965;28;20487;-48
2022/01/26 20:25:15;;;;;;;16.80;10.40;;;3.20;78.20;;;;;;5042542;28;20460;-48
2022/01/26 20:27:43;;;;;;;17.00;10.80;;;3.20;78.10;;;;;;5044953;28;20473;-48
2022/01/26 20:30:17;;;;;;;15.93;10.57;;;3.20;78.00;;;;;;5076562;28;20831;-48
2022/01/26 20:32:46;;;;;;;15.90;10.40;;;3.20;78.20;;;;;;5040174;28;20803;-48
2022/01/26 20:35:16;;;;;;;20.10;11.90;;;3.20;78.10;;;;;;5032297;28;21350;-48
2022/01/26 20:37:43;;;;;;;19.83;11.97;;;3.20;78.60;;;;;;5044048;28;20497;-48
2022/01/26 20:40:12;;;;;;;20.67;11.30;;;3.20;78.20;;;;;;5044365;28;20463;-48
2022/01/26 20:42:39;;;;;;;20.30;13.03;;;3.20;78.00;;;;;;5033890;28;20454;-48